createdAt,value
2018-10-07T00:00:50.299Z,13.0
2018-10-07T00:02:49.675Z,11.4
2018-10-07T00:04:50.288Z,11.3
2018-10-07T00:06:49.588Z,11.5
2018-10-07T00:08:49.824Z,11.5
2018-10-07T00:10:50.074Z,10.9
2018-10-07T00:12:50.320Z,10.9
2018-10-07T00:14:49.467Z,11.4
2018-10-07T00:16:49.703Z,11.8
2018-10-07T00:18:49.852Z,11.5
2018-10-07T00:20:50.062Z,11.5
2018-10-07T00:22:50.285Z,11.6
2018-10-07T00:24:49.568Z,12.1
2018-10-07T00:26:49.843Z,11.6
2018-10-07T00:28:50.037Z,11.6
2018-10-07T00:30:50.186Z,11.6
2018-10-07T00:32:50.339Z,12.3
2018-10-07T00:34:49.862Z,12.3
2018-10-07T00:36:50.175Z,12.0
2018-10-07T00:38:49.443Z,12.0
2018-10-07T00:40:49.603Z,12.2
2018-10-07T00:42:49.793Z,12.4
2018-10-07T00:44:50.048Z,12.4
2018-10-07T00:46:50.288Z,12.3
2018-10-07T00:48:49.445Z,12.3
2018-10-07T00:50:49.734Z,12.7
2018-10-07T00:52:49.938Z,12.5
2018-10-07T00:54:50.163Z,12.9
2018-10-07T00:56:49.471Z,12.9
2018-10-07T00:58:49.751Z,12.9
2018-10-07T01:00:49.933Z,12.6
2018-10-07T01:02:50.124Z,14.0
2018-10-07T01:04:49.657Z,13.6
2018-10-07T01:06:49.888Z,13.6
2018-10-07T01:08:50.060Z,14.2
2018-10-07T01:10:50.319Z,14.2
2018-10-07T01:12:49.476Z,13.8
2018-10-07T01:14:49.708Z,13.7
2018-10-07T01:16:49.957Z,13.7
2018-10-07T01:18:50.188Z,16.9
2018-10-07T01:20:49.574Z,14.6
2018-10-07T01:22:49.736Z,14.3
2018-10-07T01:24:49.934Z,13.8
2018-10-07T01:26:50.207Z,15.2
2018-10-07T01:28:49.483Z,15.2
2018-10-07T01:30:49.674Z,13.8
2018-10-07T01:32:49.841Z,14.4
2018-10-07T01:34:50.409Z,13.6
2018-10-07T01:36:49.758Z,17.2
2018-10-07T01:38:49.956Z,17.2
2018-10-07T01:40:50.213Z,14.5
2018-10-07T01:42:50.378Z,14.5
2018-10-07T01:44:49.541Z,13.9
2018-10-07T01:46:49.787Z,14.2
2018-10-07T01:48:49.993Z,14.2
2018-10-07T01:50:50.165Z,13.5
2018-10-07T01:52:50.321Z,15.1
2018-10-07T01:54:49.472Z,14.4
2018-10-07T01:56:49.869Z,14.4
2018-10-07T01:58:49.984Z,15.3
2018-10-07T02:00:50.165Z,14.1
2018-10-07T02:02:50.371Z,14.3
2018-10-07T02:04:49.916Z,14.3
2018-10-07T02:06:50.123Z,14.8
2018-10-07T02:08:50.149Z,14.9
2018-10-07T02:10:50.286Z,15.1
2018-10-07T02:12:49.459Z,14.9
2018-10-07T02:14:49.750Z,15.9
2018-10-07T02:16:50.089Z,15.9
2018-10-07T02:18:50.299Z,14.7
2018-10-07T02:20:50.434Z,14.5
2018-10-07T02:22:49.637Z,15.2
2018-10-07T02:24:49.830Z,15.2
2018-10-07T02:26:50.143Z,14.9
2018-10-07T02:28:50.263Z,14.1
2018-10-07T02:30:49.472Z,14.0
2018-10-07T02:32:49.651Z,14.0
2018-10-07T02:34:50.235Z,14.7
2018-10-07T02:36:49.584Z,15.5
2018-10-07T02:38:49.807Z,16.2
2018-10-07T02:40:49.960Z,15.4
2018-10-07T02:42:50.158Z,15.4
2018-10-07T02:44:50.411Z,16.3
2018-10-07T02:46:49.847Z,16.3
2018-10-07T02:48:50.035Z,16.5
2018-10-07T02:50:50.339Z,16.2
2018-10-07T02:52:49.547Z,17.1
2018-10-07T02:54:49.610Z,17.1
2018-10-07T02:56:49.933Z,15.5
2018-10-07T02:58:50.102Z,15.5
2018-10-07T03:00:50.307Z,16.0
2018-10-07T03:02:49.556Z,15.7
2018-10-07T03:04:50.193Z,15.7
2018-10-07T03:06:49.573Z,16.2
2018-10-07T03:08:49.785Z,16.0
2018-10-07T03:10:50.007Z,15.1
2018-10-07T03:12:50.276Z,15.2
2018-10-07T03:14:49.468Z,15.2
2018-10-07T03:16:49.853Z,15.8
2018-10-07T03:18:49.965Z,16.5
2018-10-07T03:20:50.176Z,16.5
2018-10-07T03:22:49.440Z,16.8
2018-10-07T03:24:49.615Z,17.6
2018-10-07T03:26:49.932Z,17.2
2018-10-07T03:28:50.121Z,18.4
2018-10-07T03:30:50.319Z,18.4
2018-10-07T03:32:49.524Z,18.6
2018-10-07T03:34:49.989Z,18.6
2018-10-07T03:36:50.235Z,16.3
2018-10-07T03:38:49.456Z,17.8
2018-10-07T03:40:49.729Z,17.8
2018-10-07T03:42:50.103Z,16.4
2018-10-07T03:44:50.274Z,17.8
2018-10-07T03:46:49.479Z,17.7
2018-10-07T03:48:49.716Z,18.0
2018-10-07T03:50:49.936Z,18.0
2018-10-07T03:52:50.152Z,18.1
2018-10-07T03:54:49.538Z,17.2
2018-10-07T03:56:49.865Z,17.2
2018-10-07T03:58:50.070Z,18.6
2018-10-07T04:00:50.283Z,18.6
2018-10-07T04:02:49.617Z,18.4
2018-10-07T04:04:50.222Z,18.5
2018-10-07T04:06:49.502Z,18.0
2018-10-07T04:08:49.714Z,18.7
2018-10-07T04:10:49.862Z,18.4
2018-10-07T04:12:50.095Z,18.4
2018-10-07T04:14:50.240Z,17.2
2018-10-07T04:16:49.607Z,17.3
2018-10-07T04:18:49.797Z,17.4
2018-10-07T04:20:49.987Z,17.0
2018-10-07T04:22:50.125Z,17.0
2018-10-07T04:24:50.314Z,17.4
2018-10-07T04:26:49.583Z,17.6
2018-10-07T04:28:49.764Z,16.9
2018-10-07T04:30:50.012Z,16.9
2018-10-07T04:32:50.218Z,15.9
2018-10-07T04:34:49.779Z,16.6
2018-10-07T04:36:50.029Z,17.0
2018-10-07T04:38:50.212Z,17.0
2018-10-07T04:40:49.464Z,17.2
2018-10-07T04:42:49.630Z,16.9
2018-10-07T04:44:49.869Z,16.9
2018-10-07T04:46:50.173Z,16.9
2018-10-07T04:48:49.465Z,16.9
2018-10-07T04:50:49.657Z,16.2
2018-10-07T04:52:49.856Z,16.4
2018-10-07T04:54:50.039Z,14.8
2018-10-07T04:56:50.442Z,15.8
2018-10-07T04:58:49.677Z,15.8
2018-10-07T05:00:49.817Z,15.1
2018-10-07T05:02:50.068Z,15.7
2018-10-07T05:04:49.702Z,16.0
2018-10-07T05:06:49.991Z,16.0
2018-10-07T05:08:50.142Z,16.2
2018-10-07T05:10:50.270Z,15.7
2018-10-07T05:12:49.480Z,15.0
2018-10-07T05:14:49.727Z,16.7
2018-10-07T05:16:50.008Z,16.7
2018-10-07T05:18:50.292Z,15.9
2018-10-07T05:20:49.643Z,15.9
2018-10-07T05:22:50.194Z,15.4
2018-10-07T05:24:50.477Z,14.7
2018-10-07T05:26:49.694Z,14.7
2018-10-07T05:28:49.878Z,16.0
2018-10-07T05:30:50.057Z,16.0
2018-10-07T05:32:50.316Z,14.2
2018-10-07T05:34:50.101Z,14.6
2018-10-07T05:36:49.890Z,14.6
2018-10-07T05:38:50.090Z,14.6
2018-10-07T05:40:50.321Z,14.9
2018-10-07T05:42:49.574Z,14.9
2018-10-07T05:44:49.856Z,14.5
2018-10-07T05:46:50.120Z,14.5
2018-10-07T05:48:50.287Z,15.1
2018-10-07T05:50:49.526Z,14.6
2018-10-07T05:52:49.786Z,15.7
2018-10-07T05:54:50.044Z,15.7
2018-10-07T05:56:50.236Z,15.8
2018-10-07T05:58:49.461Z,16.4
2018-10-07T06:00:49.713Z,16.3
2018-10-07T06:02:50.038Z,16.1
2018-10-07T06:04:49.568Z,16.1
2018-10-07T06:06:49.889Z,16.1
2018-10-07T06:08:50.110Z,15.9
2018-10-07T06:10:50.300Z,16.4
2018-10-07T06:12:49.467Z,16.4
2018-10-07T06:14:49.789Z,16.4
2018-10-07T06:16:49.833Z,17.2
2018-10-07T06:18:50.032Z,16.8
2018-10-07T06:20:50.280Z,16.2
2018-10-07T06:22:49.467Z,16.4
2018-10-07T06:24:49.707Z,16.4
2018-10-07T06:26:49.987Z,16.9
2018-10-07T06:28:50.174Z,16.9
2018-10-07T06:30:50.359Z,16.8
2018-10-07T06:32:49.777Z,16.5
2018-10-07T06:34:50.246Z,16.5
2018-10-07T06:36:49.599Z,16.1
2018-10-07T06:38:49.898Z,16.2
2018-10-07T06:40:50.054Z,16.0
2018-10-07T06:42:50.248Z,16.0
2018-10-07T06:44:49.479Z,14.9
2018-10-07T06:46:49.774Z,15.4
2018-10-07T06:48:49.985Z,14.9
2018-10-07T06:50:50.246Z,14.2
2018-10-07T06:52:49.455Z,14.2
2018-10-07T06:54:49.730Z,12.9
2018-10-07T06:56:50.035Z,12.9
2018-10-07T06:58:50.179Z,12.9
2018-10-07T07:00:49.475Z,12.3
2018-10-07T07:02:49.710Z,12.3
2018-10-07T07:04:50.320Z,13.7
2018-10-07T07:06:49.625Z,13.7
2018-10-07T07:08:49.866Z,13.7
2018-10-07T07:10:50.115Z,13.0
2018-10-07T07:12:50.444Z,12.5
2018-10-07T07:14:49.818Z,12.5
2018-10-07T07:16:50.131Z,13.0
2018-10-07T07:18:50.349Z,13.0
2018-10-07T07:20:49.601Z,13.0
2018-10-07T07:22:49.822Z,12.7
2018-10-07T07:24:50.037Z,14.7
2018-10-07T07:26:49.459Z,14.1
2018-10-07T07:28:49.697Z,14.3
2018-10-07T07:30:49.900Z,14.1
2018-10-07T07:32:50.112Z,14.1
2018-10-07T07:34:49.817Z,13.7
2018-10-07T07:36:50.152Z,13.7
2018-10-07T07:38:50.116Z,14.3
2018-10-07T07:40:50.304Z,14.3
2018-10-07T07:42:49.476Z,12.8
2018-10-07T07:44:49.707Z,13.8
2018-10-07T07:46:49.940Z,13.8
2018-10-07T07:48:50.248Z,13.8
2018-10-07T07:50:50.353Z,13.8
2018-10-07T07:52:49.571Z,14.3
2018-10-07T07:54:49.729Z,14.0
2018-10-07T07:56:50.048Z,14.2
2018-10-07T07:58:50.387Z,13.7
2018-10-07T08:00:49.541Z,13.7
2018-10-07T08:02:49.708Z,13.7
2018-10-07T08:04:50.282Z,13.7
2018-10-07T08:06:49.558Z,13.6
2018-10-07T08:08:49.816Z,13.7
2018-10-07T08:10:49.842Z,13.7
2018-10-07T08:12:50.005Z,13.7
2018-10-07T08:14:50.202Z,13.9
2018-10-07T08:16:49.487Z,14.0
2018-10-07T08:18:49.703Z,14.0
2018-10-07T08:20:49.899Z,14.2
2018-10-07T08:22:50.019Z,13.8
2018-10-07T08:24:50.155Z,14.1
2018-10-07T08:26:49.473Z,13.6
2018-10-07T08:28:49.646Z,13.5
2018-10-07T08:30:49.854Z,13.5
2018-10-07T08:32:50.041Z,13.5
2018-10-07T08:34:49.507Z,14.0
2018-10-07T08:36:49.681Z,13.5
2018-10-07T08:38:49.854Z,13.5
2018-10-07T08:40:50.381Z,13.6
2018-10-07T08:42:49.527Z,14.3
2018-10-07T08:44:49.690Z,14.7
2018-10-07T08:46:50.108Z,15.5
2018-10-07T08:48:50.234Z,15.5
2018-10-07T08:50:50.403Z,14.5
2018-10-07T08:52:49.608Z,14.2
2018-10-07T08:54:49.880Z,13.6
2018-10-07T08:56:50.157Z,13.6
2018-10-07T08:58:49.446Z,13.6
2018-10-07T09:00:49.695Z,13.5
2018-10-07T09:02:49.806Z,14.1
2018-10-07T09:04:50.253Z,14.0
2018-10-07T09:06:49.624Z,14.0
2018-10-07T09:08:49.842Z,14.4
2018-10-07T09:10:49.809Z,14.3
2018-10-07T09:12:50.004Z,13.2
2018-10-07T09:14:50.163Z,13.8
2018-10-07T09:16:49.497Z,13.8
2018-10-07T09:18:49.695Z,13.8
2018-10-07T09:20:49.942Z,13.5
2018-10-07T09:22:50.246Z,14.7
2018-10-07T09:24:50.285Z,13.1
2018-10-07T09:26:49.703Z,13.1
2018-10-07T09:28:49.683Z,13.7
2018-10-07T09:30:49.820Z,13.1
2018-10-07T09:32:50.069Z,12.6
2018-10-07T09:34:50.023Z,12.1
2018-10-07T09:36:50.368Z,12.1
2018-10-07T09:38:50.270Z,12.3
2018-10-07T09:40:49.557Z,12.4
2018-10-07T09:42:49.733Z,12.5
2018-10-07T09:44:49.972Z,18.6
2018-10-07T09:46:50.158Z,11.1
2018-10-07T09:48:50.351Z,11.1
2018-10-07T09:50:49.570Z,11.2
2018-10-07T09:52:49.798Z,11.2
2018-10-07T09:54:49.993Z,11.4
2018-10-07T09:56:50.278Z,11.4
2018-10-07T09:58:49.504Z,11.7
2018-10-07T10:00:49.758Z,11.0
2018-10-07T10:02:49.959Z,11.0
2018-10-07T10:04:49.502Z,11.0
2018-10-07T10:06:49.857Z,10.5
2018-10-07T10:08:50.093Z,10.2
2018-10-07T10:10:50.333Z,10.7
2018-10-07T10:12:49.460Z,14.7
2018-10-07T10:14:49.653Z,14.7
2018-10-07T10:16:49.873Z,10.2
2018-10-07T10:18:50.081Z,10.1
2018-10-07T10:20:50.289Z,10.0
2018-10-07T10:22:49.557Z,9.4
2018-10-07T10:24:50.416Z,9.4
2018-10-07T10:26:49.699Z,9.4
2018-10-07T10:28:49.863Z,9.0
2018-10-07T10:30:50.064Z,8.1
2018-10-07T10:32:50.285Z,8.5
2018-10-07T10:34:50.127Z,8.5
2018-10-07T10:36:50.537Z,7.9
2018-10-07T10:38:50.215Z,7.5
2018-10-07T10:40:50.402Z,7.4
2018-10-07T10:42:49.598Z,8.1
2018-10-07T10:44:49.805Z,8.1
2018-10-07T10:46:50.096Z,15.5
2018-10-07T10:48:49.617Z,8.8
2018-10-07T10:50:49.799Z,6.8
2018-10-07T10:52:50.046Z,6.8
2018-10-07T10:54:50.163Z,6.8
2018-10-07T10:56:49.506Z,7.6
2018-10-07T10:58:49.676Z,7.9
2018-10-07T11:00:49.857Z,7.1
2018-10-07T11:02:49.538Z,7.1
2018-10-07T11:04:50.008Z,6.8
2018-10-07T11:06:50.257Z,6.7
2018-10-07T11:08:49.462Z,6.2
2018-10-07T11:10:49.622Z,6.0
2018-10-07T11:12:49.810Z,6.0
2018-10-07T11:14:50.037Z,6.7
2018-10-07T11:16:50.247Z,6.6
2018-10-07T11:18:49.752Z,7.9
2018-10-07T11:20:49.872Z,7.9
2018-10-07T11:22:50.013Z,6.2
2018-10-07T11:24:50.411Z,6.1
2018-10-07T11:26:49.709Z,6.1
2018-10-07T11:28:49.900Z,5.2
2018-10-07T11:30:50.044Z,5.2
2018-10-07T11:32:50.232Z,5.3
2018-10-07T11:34:49.742Z,5.4
2018-10-07T11:36:50.029Z,6.5
2018-10-07T11:38:50.220Z,6.5
2018-10-07T11:40:49.765Z,6.6
2018-10-07T11:42:49.490Z,6.4
2018-10-07T11:44:49.670Z,6.4
2018-10-07T11:46:50.008Z,5.0
2018-10-07T11:48:50.031Z,5.0
2018-10-07T11:50:50.338Z,6.2
2018-10-07T11:52:50.124Z,6.2
2018-10-07T11:54:49.646Z,4.6
2018-10-07T11:56:49.962Z,4.6
2018-10-07T11:58:50.266Z,5.7
2018-10-07T12:00:50.430Z,5.7
2018-10-07T12:02:49.781Z,4.6
2018-10-07T12:04:50.284Z,4.6
2018-10-07T12:06:49.686Z,7.3
2018-10-07T12:08:49.945Z,6.1
2018-10-07T12:10:50.129Z,6.1
2018-10-07T12:12:50.354Z,4.4
2018-10-07T12:14:49.551Z,7.2
2018-10-07T12:16:49.803Z,7.2
2018-10-07T12:18:49.945Z,3.7
2018-10-07T12:20:50.159Z,4.0
2018-10-07T12:22:50.317Z,4.0
2018-10-07T12:24:49.522Z,5.6
2018-10-07T12:26:49.789Z,3.9
2018-10-07T12:28:49.934Z,3.9
2018-10-07T12:30:49.466Z,4.9
2018-10-07T12:32:49.667Z,7.4
2018-10-07T12:34:50.203Z,3.5
2018-10-07T12:36:50.453Z,3.9
2018-10-07T12:38:49.586Z,3.9
2018-10-07T12:40:49.844Z,3.9
2018-10-07T12:42:50.133Z,5.4
2018-10-07T12:44:50.057Z,6.2
2018-10-07T12:46:50.280Z,4.3
2018-10-07T12:48:49.522Z,4.3
2018-10-07T12:50:49.701Z,4.7
2018-10-07T12:52:49.816Z,4.9
2018-10-07T12:54:49.960Z,4.8
2018-10-07T12:56:50.324Z,5.8
2018-10-07T12:58:49.507Z,5.8
2018-10-07T13:00:49.669Z,7.3
2018-10-07T13:02:49.880Z,4.9
2018-10-07T13:04:50.270Z,6.3
2018-10-07T13:06:49.618Z,4.7
2018-10-07T13:08:49.765Z,4.7
2018-10-07T13:10:49.928Z,4.2
2018-10-07T13:12:50.026Z,3.9
2018-10-07T13:14:50.270Z,4.0
2018-10-07T13:16:49.589Z,4.0
2018-10-07T13:18:49.692Z,4.7
2018-10-07T13:20:49.857Z,6.9
2018-10-07T13:22:50.052Z,6.4
2018-10-07T13:24:50.328Z,6.4
2018-10-07T13:26:49.574Z,10.1
2018-10-07T13:28:49.810Z,10.1
2018-10-07T13:30:49.992Z,5.4
2018-10-07T13:32:50.119Z,6.4
2018-10-07T13:34:49.623Z,4.2
2018-10-07T13:36:49.899Z,5.4
2018-10-07T13:38:50.037Z,5.4
2018-10-07T13:40:50.173Z,6.9
2018-10-07T13:42:50.361Z,6.9
2018-10-07T13:44:49.657Z,6.9
2018-10-07T13:46:49.905Z,4.3
2018-10-07T13:48:50.136Z,4.7
2018-10-07T13:50:50.378Z,4.4
2018-10-07T13:52:49.570Z,13.7
2018-10-07T13:54:49.733Z,7.6
2018-10-07T13:56:49.931Z,7.6
2018-10-07T13:58:50.166Z,10.1
2018-10-07T14:00:50.382Z,7.4
2018-10-07T14:02:49.568Z,7.4
2018-10-07T14:04:50.112Z,7.4
2018-10-07T14:06:49.460Z,5.2
2018-10-07T14:08:49.644Z,9.8
2018-10-07T14:10:49.824Z,9.8
2018-10-07T14:12:50.001Z,21.1
2018-10-07T14:14:50.200Z,7.3
2018-10-07T14:16:49.608Z,8.1
2018-10-07T14:18:49.770Z,6.7
2018-10-07T14:20:49.957Z,5.9
2018-10-07T14:22:50.155Z,4.5
2018-10-07T14:24:50.243Z,4.5
2018-10-07T14:26:49.633Z,39.6
2018-10-07T14:28:49.663Z,5.4
2018-10-07T14:30:49.890Z,8.3
2018-10-07T14:32:50.045Z,10.1
2018-10-07T14:34:49.520Z,10.1
2018-10-07T14:36:50.016Z,9.0
2018-10-07T14:38:50.147Z,26.9
2018-10-07T14:40:50.396Z,8.1
2018-10-07T14:42:49.559Z,8.2
2018-10-07T14:44:49.754Z,8.2
2018-10-07T14:46:50.048Z,7.6
2018-10-07T14:48:50.228Z,6.2
2018-10-07T14:50:49.456Z,12.5
2018-10-07T14:52:49.604Z,7.4
2018-10-07T14:54:49.813Z,7.4
2018-10-07T14:56:50.108Z,5.5
2018-10-07T14:58:50.276Z,5.3
2018-10-07T15:00:49.488Z,11.3
2018-10-07T15:02:49.606Z,9.5
2018-10-07T15:04:49.989Z,9.5
2018-10-07T15:06:50.248Z,6.2
2018-10-07T15:08:49.513Z,6.3
2018-10-07T15:10:49.703Z,9.6
2018-10-07T15:12:49.882Z,9.6
2018-10-07T15:14:50.065Z,7.1
2018-10-07T15:16:50.282Z,6.8
2018-10-07T15:18:49.445Z,7.4
2018-10-07T15:20:49.635Z,8.8
2018-10-07T15:22:49.842Z,8.8
2018-10-07T15:24:49.991Z,8.8
2018-10-07T15:26:50.312Z,7.9
2018-10-07T15:28:49.499Z,9.3
2018-10-07T15:30:49.614Z,9.3
2018-10-07T15:32:49.770Z,10.2
2018-10-07T15:34:50.215Z,10.6
2018-10-07T15:36:49.558Z,11.5
2018-10-07T15:38:49.741Z,11.5
2018-10-07T15:40:49.958Z,10.9
2018-10-07T15:42:50.157Z,10.9
2018-10-07T15:44:50.417Z,13.2
2018-10-07T15:46:49.811Z,10.2
2018-10-07T15:48:49.910Z,10.2
2018-10-07T15:50:50.056Z,11.8
2018-10-07T15:52:50.188Z,11.8
2018-10-07T15:54:50.423Z,13.7
2018-10-07T15:56:49.855Z,15.1
2018-10-07T15:58:49.865Z,15.1
2018-10-07T16:00:50.041Z,15.9
2018-10-07T16:02:50.149Z,15.9
2018-10-07T16:04:49.838Z,16.8
2018-10-07T16:06:50.058Z,16.9
2018-10-07T16:08:50.258Z,17.9
2018-10-07T16:10:49.846Z,17.9
2018-10-07T16:12:50.068Z,19.2
2018-10-07T16:14:50.259Z,22.5
2018-10-07T16:16:49.555Z,20.8
2018-10-07T16:18:49.840Z,23.0
2018-10-07T16:20:49.936Z,23.0
2018-10-07T16:22:50.075Z,21.5
2018-10-07T16:24:50.196Z,23.2
2018-10-07T16:26:49.591Z,23.2
2018-10-07T16:28:49.728Z,23.5
2018-10-07T16:30:49.893Z,23.5
2018-10-07T16:32:50.138Z,23.5
2018-10-07T16:34:49.539Z,27.8
2018-10-07T16:36:49.748Z,27.8
2018-10-07T16:38:49.881Z,24.5
2018-10-07T16:40:50.000Z,24.5
2018-10-07T16:42:50.260Z,25.3
2018-10-07T16:44:50.444Z,22.9
2018-10-07T16:46:49.806Z,25.9
2018-10-07T16:48:50.010Z,25.9
2018-10-07T16:50:50.257Z,23.8
2018-10-07T16:52:49.553Z,23.4
2018-10-07T16:54:49.750Z,24.1
2018-10-07T16:56:50.011Z,23.8
2018-10-07T16:58:50.123Z,23.8
2018-10-07T17:00:50.326Z,24.4
2018-10-07T17:02:49.457Z,24.5
2018-10-07T17:04:50.220Z,34.1
2018-10-07T17:06:49.467Z,26.5
2018-10-07T17:08:49.660Z,26.5
2018-10-07T17:10:49.823Z,22.9
2018-10-07T17:12:50.059Z,22.7
2018-10-07T17:14:49.901Z,22.7
2018-10-07T17:16:50.149Z,24.4
2018-10-07T17:18:50.322Z,24.4
2018-10-07T17:20:49.620Z,22.5
2018-10-07T17:22:50.224Z,24.5
2018-10-07T17:24:50.373Z,23.9
2018-10-07T17:26:49.746Z,26.0
2018-10-07T17:28:49.960Z,26.0
2018-10-07T17:30:50.119Z,27.3
2018-10-07T17:32:50.368Z,26.9
2018-10-07T17:34:49.588Z,26.9
2018-10-07T17:36:49.931Z,26.9
2018-10-07T17:38:50.155Z,28.6
2018-10-07T17:40:50.344Z,31.7
2018-10-07T17:42:49.680Z,28.1
2018-10-07T17:44:50.348Z,28.7
2018-10-07T17:46:49.697Z,28.7
2018-10-07T17:48:50.081Z,28.7
2018-10-07T17:50:49.625Z,33.4
2018-10-07T17:52:49.864Z,33.3
2018-10-07T17:54:50.051Z,35.6
2018-10-07T17:56:49.982Z,35.6
2018-10-07T17:58:50.150Z,33.6
2018-10-07T18:00:50.263Z,35.2
2018-10-07T18:02:49.565Z,35.2
2018-10-07T18:04:49.875Z,33.0
2018-10-07T18:06:50.189Z,31.9
2018-10-07T18:08:50.321Z,33.2
2018-10-07T18:10:49.483Z,31.8
2018-10-07T18:12:49.717Z,30.3
2018-10-07T18:14:49.880Z,32.0
2018-10-07T18:16:49.624Z,32.0
2018-10-07T18:18:49.804Z,29.7
2018-10-07T18:20:49.996Z,29.6
2018-10-07T18:22:50.193Z,30.3
2018-10-07T18:24:49.494Z,30.3
2018-10-07T18:26:49.744Z,31.0
2018-10-07T18:28:49.955Z,31.0
2018-10-07T18:30:49.505Z,30.9
2018-10-07T18:32:50.086Z,30.3
2018-10-07T18:34:50.051Z,30.3
2018-10-07T18:36:49.642Z,32.1
2018-10-07T18:38:49.991Z,29.1
2018-10-07T18:40:50.418Z,29.1
2018-10-07T18:42:49.970Z,33.1
2018-10-07T18:44:49.476Z,33.1
2018-10-07T18:46:50.074Z,30.3
2018-10-07T18:48:49.768Z,31.2
2018-10-07T18:50:49.882Z,31.4
2018-10-07T18:52:50.427Z,34.4
2018-10-07T18:54:50.012Z,34.4
2018-10-07T18:56:49.723Z,33.2
2018-10-07T18:58:50.165Z,32.2
2018-10-07T19:00:49.813Z,30.5
2018-10-07T19:02:50.537Z,30.5
2018-10-07T19:04:49.772Z,31.2
2018-10-07T19:06:50.392Z,32.0
2018-10-07T19:08:49.864Z,31.6
2018-10-07T19:10:50.534Z,31.6
2018-10-07T19:12:50.059Z,31.3
2018-10-07T19:14:49.555Z,31.3
2018-10-07T19:16:50.367Z,29.2
2018-10-07T19:18:49.896Z,29.0
2018-10-07T19:20:50.348Z,29.9
2018-10-07T19:22:49.774Z,29.1
2018-10-07T19:24:50.295Z,29.1
2018-10-07T19:26:49.914Z,28.4
2018-10-07T19:28:49.571Z,28.0
2018-10-07T19:30:50.108Z,27.7
2018-10-07T19:32:49.694Z,27.7
2018-10-07T19:34:49.581Z,26.1
2018-10-07T19:36:50.444Z,26.8
2018-10-07T19:38:49.914Z,26.3
2018-10-07T19:40:49.542Z,24.9
2018-10-07T19:42:50.316Z,24.9
2018-10-07T19:44:50.335Z,24.8
2018-10-07T19:46:49.902Z,24.3
2018-10-07T19:48:50.443Z,24.6
2018-10-07T19:50:49.968Z,23.5
2018-10-07T19:52:49.666Z,23.5
2018-10-07T19:54:49.704Z,24.4
2018-10-07T19:56:49.788Z,23.4
2018-10-07T19:58:50.223Z,22.4
2018-10-07T20:00:49.935Z,21.5
2018-10-07T20:02:49.450Z,21.5
2018-10-07T20:04:50.251Z,22.9
2018-10-07T20:06:49.926Z,22.8
2018-10-07T20:08:49.500Z,22.4
2018-10-07T20:10:49.945Z,22.4
2018-10-07T20:12:50.528Z,22.4
2018-10-07T20:14:49.954Z,22.3
2018-10-07T20:16:49.698Z,23.0
2018-10-07T20:18:50.292Z,23.2
2018-10-07T20:20:49.912Z,23.2
2018-10-07T20:22:50.318Z,24.0
2018-10-07T20:24:49.784Z,24.0
2018-10-07T20:26:50.272Z,22.7
2018-10-07T20:28:49.746Z,24.1
2018-10-07T20:30:50.175Z,24.1
2018-10-07T20:32:49.699Z,23.3
2018-10-07T20:34:49.712Z,23.2
2018-10-07T20:36:50.390Z,26.7
2018-10-07T20:38:49.994Z,21.7
2018-10-07T20:40:49.798Z,21.7
2018-10-07T20:42:49.523Z,23.1
2018-10-07T20:44:50.299Z,23.7
2018-10-07T20:46:49.958Z,23.7
2018-10-07T20:48:49.634Z,24.4
2018-10-07T20:50:49.818Z,23.1
2018-10-07T20:52:50.347Z,23.7
2018-10-07T20:54:49.624Z,24.1
2018-10-07T20:56:49.975Z,23.7
2018-10-07T20:58:50.167Z,24.1
2018-10-07T21:00:49.745Z,24.1
2018-10-07T21:02:50.343Z,23.1
2018-10-07T21:04:50.453Z,24.8
2018-10-07T21:06:50.108Z,22.7
2018-10-07T21:08:49.729Z,22.7
2018-10-07T21:10:50.093Z,24.4
2018-10-07T21:12:49.598Z,23.0
2018-10-07T21:14:50.016Z,24.0
2018-10-07T21:16:49.735Z,24.8
2018-10-07T21:18:50.362Z,24.8
2018-10-07T21:20:49.969Z,22.9
2018-10-07T21:22:49.516Z,25.4
2018-10-07T21:24:49.973Z,25.4
2018-10-07T21:26:49.638Z,25.4
2018-10-07T21:28:50.157Z,23.1
2018-10-07T21:30:49.735Z,23.2
2018-10-07T21:32:50.345Z,23.6
2018-10-07T21:34:50.042Z,23.6
2018-10-07T21:36:49.662Z,23.6
2018-10-07T21:38:50.352Z,23.6
2018-10-07T21:40:49.903Z,22.9
2018-10-07T21:42:50.454Z,21.5
2018-10-07T21:44:49.842Z,21.1
2018-10-07T21:46:50.285Z,23.8
2018-10-07T21:48:50.131Z,23.8
2018-10-07T21:50:49.653Z,20.5
2018-10-07T21:52:50.085Z,21.7
2018-10-07T21:54:49.531Z,21.7
2018-10-07T21:56:50.257Z,22.2
2018-10-07T21:58:49.725Z,22.2
2018-10-07T22:00:50.202Z,21.8
2018-10-07T22:02:49.675Z,21.8
2018-10-07T22:04:49.470Z,24.8
2018-10-07T22:06:50.106Z,24.8
2018-10-07T22:08:49.496Z,21.2
2018-10-07T22:10:49.933Z,21.1
2018-10-07T22:12:50.327Z,21.6
2018-10-07T22:14:49.835Z,19.7
2018-10-07T22:16:49.585Z,19.7
2018-10-07T22:18:49.993Z,18.2
2018-10-07T22:20:49.529Z,18.2
2018-10-07T22:22:49.968Z,20.0
2018-10-07T22:24:49.466Z,21.1
2018-10-07T22:26:50.034Z,21.1
2018-10-07T22:28:49.538Z,21.6
2018-10-07T22:30:50.019Z,20.2
2018-10-07T22:32:49.478Z,21.2
2018-10-07T22:34:50.120Z,21.2
2018-10-07T22:36:49.984Z,19.4
2018-10-07T22:38:49.491Z,21.1
2018-10-07T22:40:49.932Z,22.6
2018-10-07T22:42:50.438Z,19.5
2018-10-07T22:44:49.975Z,19.5
2018-10-07T22:46:49.667Z,18.9
2018-10-07T22:48:50.170Z,20.9
2018-10-07T22:50:49.687Z,21.2
2018-10-07T22:52:50.141Z,21.2
2018-10-07T22:54:49.642Z,21.8
2018-10-07T22:56:50.211Z,20.4
2018-10-07T22:58:49.965Z,23.4
2018-10-07T23:00:49.649Z,20.1
2018-10-07T23:02:50.199Z,20.1
2018-10-07T23:04:50.143Z,20.9
2018-10-07T23:06:49.674Z,20.4
2018-10-07T23:08:50.131Z,21.7
2018-10-07T23:10:49.688Z,21.3
2018-10-07T23:12:50.279Z,21.3
2018-10-07T23:14:49.845Z,21.0
2018-10-07T23:16:49.555Z,21.0
2018-10-07T23:18:50.061Z,24.6
2018-10-07T23:20:49.522Z,24.6
2018-10-07T23:22:50.067Z,21.3
2018-10-07T23:24:49.629Z,21.3
2018-10-07T23:26:50.229Z,22.2
2018-10-07T23:28:49.792Z,21.8
2018-10-07T23:30:50.244Z,21.8
2018-10-07T23:32:49.886Z,19.4
2018-10-07T23:34:49.806Z,19.1
2018-10-07T23:36:49.544Z,18.9
2018-10-07T23:38:50.176Z,20.3
2018-10-07T23:40:49.657Z,18.7
2018-10-07T23:42:50.103Z,18.7
2018-10-07T23:44:49.614Z,18.3
2018-10-07T23:46:50.399Z,18.3
2018-10-07T23:48:49.824Z,17.6
2018-10-07T23:50:50.406Z,17.8
2018-10-07T23:52:50.113Z,17.8
2018-10-07T23:54:49.743Z,17.2
2018-10-07T23:56:50.246Z,17.2
2018-10-07T23:58:49.897Z,16.6
